createdAt,value
2023-05-03T00:00:23.247Z,64.27
2023-05-03T00:02:54.070Z,64.22
2023-05-03T00:05:22.157Z,64.57
2023-05-03T00:07:50.069Z,64.36
2023-05-03T00:10:18.327Z,65.62
2023-05-03T00:12:46.232Z,65.69
2023-05-03T00:15:16.714Z,65.74
2023-05-03T00:17:44.633Z,66.09
2023-05-03T00:20:15.569Z,66.15
2023-05-03T00:22:43.386Z,66.74
2023-05-03T00:25:11.380Z,67.00
2023-05-03T00:27:39.614Z,66.92
2023-05-03T00:30:09.636Z,67.42
2023-05-03T00:32:37.700Z,68.07
2023-05-03T00:35:06.912Z,68.35
2023-05-03T00:37:37.635Z,68.88
2023-05-03T00:40:07.526Z,68.70
2023-05-03T00:42:36.651Z,69.33
2023-05-03T00:45:06.191Z,69.78
2023-05-03T00:47:34.839Z,70.20
2023-05-03T00:50:03.127Z,69.76
2023-05-03T00:52:31.261Z,70.41
2023-05-03T00:55:01.668Z,70.81
2023-05-03T00:57:30.725Z,70.45
2023-05-03T00:59:59.116Z,71.15
2023-05-03T01:02:28.372Z,71.31
2023-05-03T01:04:56.892Z,71.19
2023-05-03T01:07:36.830Z,71.62
2023-05-03T01:10:19.372Z,71.57
2023-05-03T01:12:56.982Z,71.78
2023-05-03T01:15:37.976Z,71.65
2023-05-03T01:18:12.585Z,71.70
2023-05-03T01:20:44.774Z,71.15
2023-05-03T01:23:20.791Z,71.59
2023-05-03T01:25:53.157Z,71.65
2023-05-03T01:28:21.573Z,71.61
2023-05-03T01:30:52.850Z,71.56
2023-05-03T01:33:32.366Z,71.88
2023-05-03T01:36:08.002Z,72.06
2023-05-03T01:38:38.618Z,71.66
2023-05-03T01:41:12.785Z,72.05
2023-05-03T01:43:41.923Z,72.42
2023-05-03T01:46:09.818Z,72.31
2023-05-03T01:48:37.670Z,72.22
2023-05-03T01:51:06.025Z,72.67
2023-05-03T01:53:33.856Z,72.03
2023-05-03T01:56:01.623Z,72.47
2023-05-03T01:58:31.153Z,72.79
2023-05-03T02:00:58.972Z,72.81
2023-05-03T02:03:26.758Z,73.01
2023-05-03T02:05:55.097Z,72.63
2023-05-03T02:08:22.885Z,73.05
2023-05-03T02:10:50.688Z,73.21
2023-05-03T02:13:18.971Z,73.19
2023-05-03T02:15:48.270Z,73.00
2023-05-03T02:18:16.436Z,73.29
2023-05-03T02:20:46.802Z,73.59
2023-05-03T02:23:15.087Z,73.57
2023-05-03T02:25:43.118Z,73.43
2023-05-03T02:28:11.171Z,73.28
2023-05-03T02:30:39.026Z,73.56
2023-05-03T02:33:08.384Z,73.38
2023-05-03T02:35:36.633Z,73.27
2023-05-03T02:38:04.464Z,73.23
2023-05-03T02:40:32.630Z,73.61
2023-05-03T02:43:00.745Z,73.67
2023-05-03T02:45:28.562Z,74.01
2023-05-03T02:47:56.474Z,74.04
2023-05-03T02:50:26.625Z,74.31
2023-05-03T02:52:54.553Z,74.59
2023-05-03T02:55:22.877Z,74.43
2023-05-03T02:57:51.039Z,74.80
2023-05-03T03:00:19.177Z,75.06
2023-05-03T03:02:49.747Z,75.18
2023-05-03T03:05:18.977Z,75.44
2023-05-03T03:07:48.196Z,75.16
2023-05-03T03:10:16.015Z,75.35
2023-05-03T03:12:47.379Z,75.40
2023-05-03T03:15:15.582Z,75.84
2023-05-03T03:17:43.408Z,75.54
2023-05-03T03:20:12.960Z,75.52
2023-05-03T03:22:41.275Z,75.71
2023-05-03T03:25:11.288Z,75.77
2023-05-03T03:27:39.922Z,75.80
2023-05-03T03:30:09.633Z,75.69
2023-05-03T03:32:37.648Z,75.89
2023-05-03T03:35:06.302Z,75.96
2023-05-03T03:37:34.235Z,76.07
2023-05-03T03:40:02.204Z,76.40
2023-05-03T03:42:31.834Z,76.40
2023-05-03T03:44:59.793Z,76.52
2023-05-03T03:47:27.983Z,76.19
2023-05-03T03:49:55.919Z,76.45
2023-05-03T03:52:23.893Z,76.22
2023-05-03T03:54:52.254Z,76.61
2023-05-03T03:57:20.323Z,76.76
2023-05-03T03:59:49.591Z,76.81
2023-05-03T04:02:17.493Z,76.91
2023-05-03T04:04:45.916Z,76.33
2023-05-03T04:07:13.869Z,76.42
2023-05-03T04:09:41.671Z,76.38
2023-05-03T04:12:09.818Z,75.94
2023-05-03T04:14:38.017Z,75.91
2023-05-03T04:17:07.540Z,76.22
2023-05-03T04:19:35.530Z,75.60
2023-05-03T04:22:03.585Z,75.74
2023-05-03T04:24:31.628Z,75.83
2023-05-03T04:27:02.226Z,75.36
2023-05-03T04:29:30.095Z,75.55
2023-05-03T04:31:58.021Z,75.20
2023-05-03T04:34:27.339Z,75.07
2023-05-03T04:36:55.266Z,74.95
2023-05-03T04:39:24.046Z,74.36
2023-05-03T04:41:52.195Z,74.30
2023-05-03T04:44:21.227Z,74.06
2023-05-03T04:46:51.154Z,73.20
2023-05-03T04:49:19.399Z,73.42
2023-05-03T04:51:48.601Z,73.30
2023-05-03T04:54:17.226Z,73.19
2023-05-03T04:56:45.179Z,72.35
2023-05-03T04:59:13.077Z,72.15
2023-05-03T05:01:41.004Z,71.58
2023-05-03T05:04:09.370Z,70.77
2023-05-03T05:06:37.393Z,70.64
2023-05-03T05:09:08.559Z,70.45
2023-05-03T05:11:37.360Z,70.06
2023-05-03T05:14:05.201Z,69.39
2023-05-03T05:16:33.231Z,69.29
2023-05-03T05:19:01.307Z,69.59
2023-05-03T05:21:29.331Z,68.70
2023-05-03T05:23:57.234Z,69.06
2023-05-03T05:26:27.318Z,68.07
2023-05-03T05:28:55.823Z,67.56
2023-05-03T05:31:24.340Z,67.48
2023-05-03T05:33:52.362Z,67.63
2023-05-03T05:36:20.701Z,66.98
2023-05-03T05:38:48.609Z,66.52
2023-05-03T05:41:17.812Z,66.35
2023-05-03T05:43:47.003Z,66.37
2023-05-03T05:46:15.060Z,65.41
2023-05-03T05:48:43.600Z,65.21
2023-05-03T05:51:11.993Z,65.46
2023-05-03T05:53:39.900Z,65.08
2023-05-03T05:56:08.866Z,64.86
2023-05-03T05:58:38.420Z,64.26
2023-05-03T06:01:08.635Z,64.77
2023-05-03T06:03:36.835Z,64.07
2023-05-03T06:06:04.974Z,64.14
2023-05-03T06:08:33.069Z,64.02
2023-05-03T06:11:01.345Z,64.00
2023-05-03T06:13:29.188Z,63.35
2023-05-03T06:15:57.217Z,63.18
2023-05-03T06:18:27.113Z,62.62
2023-05-03T06:20:54.922Z,62.10
2023-05-03T06:23:22.844Z,62.54
2023-05-03T06:25:50.797Z,62.27
2023-05-03T06:28:18.772Z,61.90
2023-05-03T06:30:50.302Z,62.12
2023-05-03T06:33:18.532Z,61.57
2023-05-03T06:35:48.312Z,61.72
2023-05-03T06:38:16.196Z,61.57
2023-05-03T06:40:45.765Z,61.14
2023-05-03T06:43:13.743Z,61.16
2023-05-03T06:45:43.678Z,60.75
2023-05-03T06:48:11.824Z,60.64
2023-05-03T06:50:40.515Z,59.98
2023-05-03T06:53:09.787Z,60.36
2023-05-03T06:55:37.875Z,60.30
2023-05-03T06:58:10.152Z,60.44
2023-05-03T07:00:39.262Z,59.68
2023-05-03T07:03:07.316Z,59.80
2023-05-03T07:05:35.425Z,59.05
2023-05-03T07:08:03.707Z,58.96
2023-05-03T07:10:36.593Z,59.53
2023-05-03T07:13:04.675Z,60.69
2023-05-03T07:15:32.588Z,61.77
2023-05-03T07:18:00.931Z,61.89
2023-05-03T07:20:29.417Z,59.88
2023-05-03T07:22:57.563Z,58.46
2023-05-03T07:25:25.587Z,56.31
2023-05-03T07:27:55.099Z,54.24
2023-05-03T07:30:23.345Z,53.02
2023-05-03T07:32:51.845Z,51.87
2023-05-03T07:35:19.996Z,50.37
2023-05-03T07:37:47.820Z,49.35
2023-05-03T07:40:15.916Z,47.59
2023-05-03T07:42:43.931Z,46.66
2023-05-03T07:45:13.446Z,45.65
2023-05-03T07:47:41.435Z,44.88
2023-05-03T07:50:09.838Z,43.70
2023-05-03T07:52:38.275Z,42.80
2023-05-03T07:55:07.339Z,42.59
2023-05-03T07:57:36.306Z,41.89
2023-05-03T08:00:06.158Z,41.16
2023-05-03T08:02:35.820Z,40.65
2023-05-03T08:05:05.546Z,39.67
2023-05-03T08:07:33.685Z,39.25
2023-05-03T08:10:02.727Z,39.00
2023-05-03T08:12:30.831Z,38.94
2023-05-03T08:14:58.660Z,37.85
2023-05-03T08:17:27.296Z,37.67
2023-05-03T08:19:57.932Z,36.58
2023-05-03T08:22:27.049Z,36.43
2023-05-03T08:24:56.618Z,36.17
2023-05-03T08:27:25.814Z,36.03
2023-05-03T08:29:53.761Z,35.72
2023-05-03T08:32:22.724Z,35.46
2023-05-03T08:34:51.616Z,35.31
2023-05-03T08:37:20.950Z,34.74
2023-05-03T08:39:49.030Z,35.16
2023-05-03T08:42:17.209Z,34.53
2023-05-03T08:44:49.522Z,34.16
2023-05-03T08:47:18.249Z,34.26
2023-05-03T08:49:46.318Z,33.87
2023-05-03T08:52:18.457Z,33.10
2023-05-03T08:54:49.362Z,33.32
2023-05-03T08:57:18.002Z,33.26
2023-05-03T08:59:49.753Z,32.93
2023-05-03T09:02:18.891Z,33.25
2023-05-03T09:04:47.355Z,33.00
2023-05-03T09:07:16.913Z,32.32
2023-05-03T09:09:47.117Z,32.64
2023-05-03T09:12:34.922Z,32.19
2023-05-03T09:15:03.096Z,32.66
2023-05-03T09:17:31.202Z,32.26
2023-05-03T09:20:00.252Z,31.57
2023-05-03T09:22:29.757Z,31.53
2023-05-03T09:24:59.301Z,31.47
2023-05-03T09:27:29.085Z,31.01
2023-05-03T09:29:56.973Z,31.21
2023-05-03T09:32:25.297Z,31.41
2023-05-03T09:35:09.669Z,30.88
2023-05-03T09:37:38.783Z,30.99
2023-05-03T09:40:10.407Z,30.73
2023-05-03T09:42:43.737Z,30.43
2023-05-03T09:45:12.197Z,30.46
2023-05-03T09:47:52.403Z,30.13
2023-05-03T09:50:20.778Z,29.95
2023-05-03T09:52:49.507Z,29.65
2023-05-03T09:55:18.092Z,29.39
2023-05-03T09:57:51.026Z,29.44
2023-05-03T10:00:20.735Z,29.73
2023-05-03T10:02:52.217Z,29.59
2023-05-03T10:05:22.544Z,29.81
2023-05-03T10:07:52.307Z,29.41
2023-05-03T10:10:21.296Z,28.81
2023-05-03T10:12:53.983Z,28.54
2023-05-03T10:15:23.790Z,28.37
2023-05-03T10:17:54.815Z,28.41
2023-05-03T10:20:28.795Z,28.95
2023-05-03T10:23:10.024Z,28.90
2023-05-03T10:25:39.195Z,29.06
2023-05-03T10:28:09.449Z,29.02
2023-05-03T10:30:38.564Z,28.63
2023-05-03T10:33:35.547Z,28.45
2023-05-03T10:36:07.685Z,28.70
2023-05-03T10:38:35.551Z,28.91
2023-05-03T10:41:03.850Z,28.58
2023-05-03T10:43:51.141Z,28.01
2023-05-03T10:46:35.188Z,28.26
2023-05-03T10:49:22.987Z,28.38
2023-05-03T10:51:51.145Z,28.68
2023-05-03T10:54:19.703Z,29.16
2023-05-03T10:56:56.276Z,28.91
2023-05-03T10:59:25.928Z,28.70
2023-05-03T11:01:54.556Z,28.48
2023-05-03T11:04:40.829Z,28.55
2023-05-03T11:07:10.203Z,28.87
2023-05-03T11:09:38.910Z,29.34
2023-05-03T11:12:08.744Z,29.72
2023-05-03T11:14:39.835Z,29.72
2023-05-03T11:17:07.988Z,29.84
2023-05-03T11:19:36.136Z,30.10
2023-05-03T11:22:04.062Z,30.10
2023-05-03T11:24:32.105Z,30.32
2023-05-03T11:27:00.241Z,30.28
2023-05-03T11:29:36.273Z,30.54
2023-05-03T11:32:11.015Z,30.85
2023-05-03T11:34:40.451Z,31.03
2023-05-03T11:37:09.667Z,30.78
2023-05-03T11:39:37.787Z,30.45
2023-05-03T11:42:06.409Z,30.64
2023-05-03T11:44:35.941Z,30.67
2023-05-03T11:47:05.811Z,30.85
2023-05-03T11:49:33.929Z,31.05
2023-05-03T11:52:01.938Z,31.27
2023-05-03T11:54:31.189Z,31.55
2023-05-03T11:57:00.930Z,31.78
2023-05-03T11:59:36.529Z,31.08
2023-05-03T12:02:07.767Z,31.21
2023-05-03T12:04:36.289Z,31.43
2023-05-03T12:07:05.679Z,31.44
2023-05-03T12:09:34.150Z,31.10
2023-05-03T12:12:05.686Z,30.96
2023-05-03T12:14:57.743Z,30.14
2023-05-03T12:17:38.606Z,30.26
2023-05-03T12:22:58.638Z,31.14
2023-05-03T12:25:29.037Z,31.67
2023-05-03T12:28:18.592Z,31.16
2023-05-03T12:30:48.337Z,31.23
2023-05-03T12:33:22.005Z,31.36
2023-05-03T12:35:53.316Z,31.57
2023-05-03T12:38:23.946Z,30.72
2023-05-03T12:40:53.323Z,30.66
2023-05-03T12:46:01.462Z,29.94
2023-05-03T12:48:39.009Z,30.57
2023-05-03T12:51:19.573Z,31.11
2023-05-03T12:53:54.540Z,31.93
2023-05-03T12:56:24.863Z,31.87
2023-05-03T12:59:07.674Z,31.12
2023-05-03T13:06:46.998Z,29.38
2023-05-03T13:09:21.285Z,29.77
2023-05-03T13:11:52.816Z,30.96
2023-05-03T13:14:21.095Z,32.21
2023-05-03T13:16:51.007Z,32.38
2023-05-03T13:19:20.228Z,32.74
2023-05-03T13:21:49.497Z,32.33
2023-05-03T13:24:17.594Z,32.60
2023-05-03T13:26:47.539Z,31.47
2023-05-03T13:29:17.687Z,30.45
2023-05-03T13:31:45.566Z,30.40
2023-05-03T13:34:13.613Z,31.38
2023-05-03T13:36:43.020Z,30.95
2023-05-03T13:39:11.017Z,29.87
2023-05-03T13:41:40.825Z,29.25
2023-05-03T13:44:09.333Z,27.95
2023-05-03T13:46:38.465Z,26.74
2023-05-03T13:49:07.385Z,25.62
2023-05-03T13:51:36.436Z,25.99
2023-05-03T13:54:07.470Z,26.58
2023-05-03T13:56:35.809Z,27.21
2023-05-03T13:59:04.422Z,27.69
2023-05-03T14:01:32.455Z,28.83
2023-05-03T14:04:00.599Z,30.20
2023-05-03T14:06:29.902Z,31.72
2023-05-03T14:09:01.661Z,33.56
2023-05-03T14:11:32.024Z,35.50
2023-05-03T14:14:00.131Z,36.91
2023-05-03T14:18:59.305Z,38.04
2023-05-03T14:21:27.247Z,38.16
2023-05-03T14:23:56.552Z,37.75
2023-05-03T14:26:26.136Z,37.45
2023-05-03T14:28:55.493Z,37.76
2023-05-03T14:31:23.389Z,38.35
2023-05-03T14:33:51.459Z,38.55
2023-05-03T14:36:19.306Z,38.67
2023-05-03T14:38:47.184Z,39.06
2023-05-03T14:41:15.417Z,39.10
2023-05-03T14:43:43.278Z,39.21
2023-05-03T14:46:12.510Z,39.41
2023-05-03T14:48:40.507Z,39.21
2023-05-03T14:51:08.314Z,38.99
2023-05-03T14:53:36.744Z,38.13
2023-05-03T14:56:05.066Z,36.66
2023-05-03T14:58:34.164Z,35.81
2023-05-03T15:01:02.465Z,35.61
2023-05-03T15:03:32.032Z,35.60
2023-05-03T15:06:00.347Z,36.20
2023-05-03T15:08:28.825Z,36.67
2023-05-03T15:10:56.861Z,36.62
2023-05-03T15:13:25.222Z,37.02
2023-05-03T15:15:53.346Z,37.41
2023-05-03T15:18:21.411Z,38.10
2023-05-03T15:20:50.683Z,39.37
2023-05-03T15:23:18.657Z,40.46
2023-05-03T15:25:46.673Z,41.36
2023-05-03T15:28:14.501Z,42.22
2023-05-03T15:30:42.452Z,43.72
2023-05-03T15:33:11.497Z,45.10
2023-05-03T15:35:41.876Z,47.28
2023-05-03T15:38:11.149Z,48.43
2023-05-03T15:40:39.166Z,49.12
2023-05-03T15:43:08.057Z,49.95
2023-05-03T15:45:36.366Z,50.08
2023-05-03T15:48:04.857Z,50.86
2023-05-03T15:50:32.733Z,51.16
2023-05-03T15:53:00.627Z,51.53
2023-05-03T15:55:29.908Z,52.00
2023-05-03T15:57:58.628Z,52.34
2023-05-03T16:00:27.805Z,53.08
2023-05-03T16:02:57.455Z,54.08
2023-05-03T16:05:25.402Z,54.39
2023-05-03T16:07:53.480Z,53.72
2023-05-03T16:10:23.501Z,51.99
2023-05-03T16:12:54.094Z,51.18
2023-05-03T16:15:21.941Z,51.62
2023-05-03T16:17:50.212Z,52.15
2023-05-03T16:20:18.299Z,52.58
2023-05-03T16:22:48.195Z,52.94
2023-05-03T16:25:16.744Z,53.49
2023-05-03T16:27:44.680Z,54.09
2023-05-03T16:30:15.250Z,54.74
2023-05-03T16:32:44.074Z,55.61
2023-05-03T16:35:13.701Z,56.06
2023-05-03T16:37:41.990Z,57.34
2023-05-03T16:40:11.711Z,58.41
2023-05-03T16:42:40.286Z,60.06
2023-05-03T16:45:10.749Z,61.03
2023-05-03T16:47:40.448Z,60.29
2023-05-03T16:50:09.526Z,59.16
2023-05-03T16:52:40.012Z,58.24
2023-05-03T16:55:09.211Z,57.66
2023-05-03T16:57:37.199Z,57.27
2023-05-03T17:00:09.316Z,56.81
2023-05-03T17:02:40.912Z,56.95
2023-05-03T17:05:10.626Z,57.12
2023-05-03T17:07:38.629Z,56.47
2023-05-03T17:10:08.055Z,57.34
2023-05-03T17:12:36.214Z,58.38
2023-05-03T17:15:04.495Z,58.75
2023-05-03T17:17:33.600Z,59.97
2023-05-03T17:20:03.204Z,60.41
2023-05-03T17:22:31.508Z,61.55
2023-05-03T17:24:59.725Z,62.19
2023-05-03T17:27:27.597Z,62.58
2023-05-03T17:29:56.948Z,63.15
2023-05-03T17:32:26.866Z,63.93
2023-05-03T17:34:54.715Z,64.46
2023-05-03T17:37:24.068Z,64.96
2023-05-03T17:39:52.552Z,65.70
2023-05-03T17:42:20.736Z,65.33
2023-05-03T17:44:51.764Z,65.94
2023-05-03T17:47:20.925Z,66.05
2023-05-03T17:49:48.779Z,65.85
2023-05-03T17:52:16.725Z,66.24
2023-05-03T17:54:46.293Z,66.46
2023-05-03T17:57:14.521Z,66.98
2023-05-03T17:59:42.357Z,67.02
2023-05-03T18:02:10.438Z,67.87
2023-05-03T18:04:39.690Z,67.83
2023-05-03T18:07:07.578Z,67.89
2023-05-03T18:09:36.523Z,67.88
2023-05-03T18:12:07.578Z,67.88
2023-05-03T18:14:36.665Z,68.78
2023-05-03T18:17:04.566Z,67.68
2023-05-03T18:19:32.547Z,68.53
2023-05-03T18:22:00.817Z,68.58
2023-05-03T18:24:28.635Z,68.82
2023-05-03T18:26:56.447Z,69.09
2023-05-03T18:29:26.015Z,68.78
2023-05-03T18:31:54.899Z,68.69
2023-05-03T18:34:22.866Z,69.14
2023-05-03T18:36:51.007Z,69.32
2023-05-03T18:39:18.822Z,69.71
2023-05-03T18:41:46.657Z,69.56
2023-05-03T18:44:14.617Z,69.93
2023-05-03T18:46:44.613Z,70.52
2023-05-03T18:49:12.969Z,70.60
2023-05-03T18:51:41.254Z,70.75
2023-05-03T18:54:09.125Z,71.05
2023-05-03T18:56:36.962Z,71.56
2023-05-03T18:59:05.347Z,71.82
2023-05-03T19:01:33.720Z,71.96
2023-05-03T19:04:04.487Z,72.16
2023-05-03T19:06:32.562Z,72.09
2023-05-03T19:09:00.374Z,72.41
2023-05-03T19:11:28.190Z,72.67
2023-05-03T19:13:58.872Z,72.41
2023-05-03T19:16:30.434Z,72.47
2023-05-03T19:18:58.841Z,72.65
2023-05-03T19:21:30.243Z,72.75
2023-05-03T19:24:00.381Z,72.71
2023-05-03T19:26:30.016Z,72.64
2023-05-03T19:28:58.112Z,73.00
2023-05-03T19:31:26.056Z,72.93
2023-05-03T19:33:54.297Z,73.06
2023-05-03T19:36:22.162Z,72.65
2023-05-03T19:38:51.450Z,72.93
2023-05-03T19:41:19.592Z,72.92
2023-05-03T19:43:47.547Z,72.80
2023-05-03T19:46:16.843Z,73.31
2023-05-03T19:48:45.096Z,73.10
2023-05-03T19:51:14.793Z,72.71
2023-05-03T19:53:42.702Z,73.07
2023-05-03T19:56:13.450Z,72.78
2023-05-03T19:58:41.303Z,72.61
2023-05-03T20:01:09.304Z,72.43
2023-05-03T20:03:37.960Z,72.80
2023-05-03T20:06:06.296Z,72.29
2023-05-03T20:08:36.020Z,72.48
2023-05-03T20:11:04.001Z,72.13
2023-05-03T20:13:33.270Z,72.50
2023-05-03T20:16:04.899Z,72.50
2023-05-03T20:18:32.893Z,72.16
2023-05-03T20:21:00.832Z,72.25
2023-05-03T20:23:28.728Z,72.03
2023-05-03T20:25:57.093Z,71.91
2023-05-03T20:28:25.160Z,71.62
2023-05-03T20:30:54.396Z,71.80
2023-05-03T20:33:22.338Z,71.91
2023-05-03T20:35:50.163Z,71.79
2023-05-03T20:38:18.013Z,71.80
2023-05-03T20:40:45.998Z,71.82
2023-05-03T20:43:14.119Z,71.83
2023-05-03T20:45:42.004Z,71.45
2023-05-03T20:48:11.602Z,71.99
2023-05-03T20:50:39.563Z,71.71
2023-05-03T20:53:07.466Z,71.10
2023-05-03T20:55:35.432Z,70.84
2023-05-03T20:58:03.944Z,71.03
2023-05-03T21:00:33.277Z,70.97
2023-05-03T21:03:01.228Z,71.07
2023-05-03T21:05:30.684Z,71.25
2023-05-03T21:07:58.557Z,70.97
2023-05-03T21:10:26.787Z,71.04
2023-05-03T21:12:54.707Z,70.86
2023-05-03T21:15:22.658Z,70.68
2023-05-03T21:17:51.041Z,70.81
2023-05-03T21:20:19.083Z,71.03
2023-05-03T21:22:48.423Z,71.47
2023-05-03T21:25:16.377Z,71.26
2023-05-03T21:27:44.275Z,70.84
2023-05-03T21:30:13.704Z,70.96
2023-05-03T21:32:41.663Z,70.91
2023-05-03T21:35:10.706Z,70.78
2023-05-03T21:37:38.657Z,71.08
2023-05-03T21:40:09.440Z,70.90
2023-05-03T21:42:37.615Z,70.94
2023-05-03T21:45:06.357Z,70.72
2023-05-03T21:47:34.336Z,70.73
2023-05-03T21:50:02.840Z,70.79
2023-05-03T21:52:30.842Z,70.17
2023-05-03T21:54:59.267Z,70.13
2023-05-03T21:57:29.178Z,69.87
2023-05-03T21:59:58.312Z,69.68
2023-05-03T22:02:26.531Z,69.81
2023-05-03T22:04:54.538Z,69.54
2023-05-03T22:07:22.383Z,69.49
2023-05-03T22:09:50.557Z,69.10
2023-05-03T22:12:24.137Z,69.25
2023-05-03T22:14:54.295Z,69.21
2023-05-03T22:17:22.545Z,69.51
2023-05-03T22:19:50.540Z,69.66
2023-05-03T22:22:18.465Z,69.92
2023-05-03T22:24:46.628Z,69.91
2023-05-03T22:27:14.797Z,70.00
2023-05-03T22:29:42.872Z,70.18
2023-05-03T22:32:12.257Z,70.50
2023-05-03T22:34:40.220Z,70.85
2023-05-03T22:37:08.117Z,71.26
2023-05-03T22:39:36.174Z,71.45
2023-05-03T22:42:04.405Z,71.52
2023-05-03T22:44:32.584Z,71.79
2023-05-03T22:47:00.714Z,72.06
2023-05-03T22:49:29.973Z,72.32
2023-05-03T22:51:57.881Z,72.33
2023-05-03T22:54:26.247Z,72.50
2023-05-03T22:56:54.671Z,72.86
2023-05-03T22:59:22.527Z,72.94
2023-05-03T23:01:50.579Z,72.86
2023-05-03T23:04:18.548Z,73.01
2023-05-03T23:06:48.141Z,73.15
2023-05-03T23:09:15.966Z,72.88
2023-05-03T23:11:43.906Z,72.87
2023-05-03T23:14:11.747Z,73.33
2023-05-03T23:16:39.943Z,73.21
2023-05-03T23:19:08.350Z,73.50
2023-05-03T23:21:36.333Z,73.61
2023-05-03T23:24:06.521Z,73.56
2023-05-03T23:26:34.823Z,74.07
2023-05-03T23:29:03.318Z,73.46
2023-05-03T23:31:32.523Z,73.61
2023-05-03T23:34:05.067Z,73.44
2023-05-03T23:36:34.249Z,73.38
2023-05-03T23:39:02.143Z,73.09
2023-05-03T23:41:31.411Z,73.73
2023-05-03T23:43:59.310Z,73.53
2023-05-03T23:46:27.164Z,73.37
2023-05-03T23:48:55.099Z,73.73
2023-05-03T23:51:23.213Z,74.02
2023-05-03T23:53:51.031Z,74.26
2023-05-03T23:56:18.941Z,74.70
2023-05-03T23:58:48.294Z,74.73
